Time;durP1;ratioP1;P1;durP2;ratioP2;P2;SDS_P1;SDS_P2;PMS_P1;PMS_P2;Temp;Humidity;BMP_temperature;BMP_pressure;BME280_temperature;BME280_humidity;BME280_pressure;Samples;Min_cycle;Max_cycle;Signal;HPM_P1;HPM_P2
2024/01/18 00:00:49;;;;;;;19.13;13.37;;;-0.30;99.90;;;;;;5000601;28;20455;-77
2024/01/18 00:03:15;;;;;;;20.07;13.33;;;-0.30;99.90;;;;;;4969633;28;20031;-77
2024/01/18 00:05:42;;;;;;;20.40;14.27;;;-0.40;99.90;;;;;;5003825;28;20068;-79
2024/01/18 00:08:08;;;;;;;16.43;13.00;;;-0.40;99.90;;;;;;4970240;28;20045;-76
2024/01/18 00:10:34;;;;;;;18.47;13.27;;;-0.40;99.90;;;;;;4970972;28;20465;-80
2024/01/18 00:13:01;;;;;;;20.60;14.33;;;-0.40;99.90;;;;;;4985305;28;20041;-79
2024/01/18 00:15:28;;;;;;;16.53;12.30;;;-0.40;99.90;;;;;;4972144;28;20038;-80
2024/01/18 00:17:54;;;;;;;15.90;11.80;;;-0.40;99.90;;;;;;4955420;28;20041;-78
2024/01/18 00:20:22;;;;;;;16.43;11.87;;;-0.40;99.90;;;;;;4954282;28;20026;-74
2024/01/18 00:22:48;;;;;;;15.53;11.43;;;-0.40;99.90;;;;;;4950853;28;20049;-79
2024/01/18 00:25:15;;;;;;;15.67;10.90;;;-0.50;99.90;;;;;;4955154;28;20370;-80
2024/01/18 00:27:43;;;;;;;17.50;11.53;;;-0.50;99.90;;;;;;4970234;28;20389;-76
2024/01/18 00:30:10;;;;;;;16.23;12.00;;;-0.50;99.90;;;;;;4968121;28;20369;-80
2024/01/18 00:32:36;;;;;;;16.83;11.33;;;-0.50;99.90;;;;;;4968837;28;20041;-77
2024/01/18 00:35:03;;;;;;;25.40;15.67;;;-0.50;99.90;;;;;;4969988;28;20057;-79
2024/01/18 00:37:29;;;;;;;20.67;14.33;;;-0.50;99.90;;;;;;4969940;28;20045;-76
2024/01/18 00:39:56;;;;;;;27.17;16.63;;;-0.50;99.90;;;;;;5002052;28;20038;-80
2024/01/18 00:42:22;;;;;;;24.07;16.57;;;-0.60;99.90;;;;;;4971205;28;20065;-79
2024/01/18 00:44:48;;;;;;;24.57;17.57;;;-0.60;99.90;;;;;;4987144;28;20033;-81
2024/01/18 00:47:15;;;;;;;22.90;15.17;;;-0.60;99.90;;;;;;4970355;28;20038;-75
2024/01/18 00:49:43;;;;;;;25.23;16.00;;;-0.60;99.90;;;;;;4970520;28;20033;-77
2024/01/18 00:52:10;;;;;;;23.57;13.97;;;-0.60;99.90;;;;;;4968773;28;20041;-79
2024/01/18 00:54:36;;;;;;;22.73;14.60;;;-0.60;99.90;;;;;;4985017;28;20126;-78
2024/01/18 00:57:02;;;;;;;22.13;14.40;;;-0.60;99.90;;;;;;4983292;28;20036;-78
2024/01/18 00:59:29;;;;;;;18.23;12.60;;;-0.70;99.90;;;;;;4985200;28;20046;-80
2024/01/18 01:01:55;;;;;;;20.97;14.17;;;-0.60;99.90;;;;;;4969574;28;20424;-81
2024/01/18 01:04:21;;;;;;;22.40;15.33;;;-0.60;99.90;;;;;;4954107;28;20061;-80
2024/01/18 01:06:48;;;;;;;21.73;16.23;;;-0.60;99.90;;;;;;4969714;28;20042;-78
2024/01/18 01:09:14;;;;;;;28.43;17.00;;;-0.70;99.90;;;;;;4949665;28;20077;-80
2024/01/18 01:11:41;;;;;;;26.20;19.00;;;-0.70;99.90;;;;;;4969497;28;20061;-75
2024/01/18 01:14:07;;;;;;;27.40;18.07;;;-0.70;99.90;;;;;;4986233;28;20048;-79
2024/01/18 01:16:33;;;;;;;23.70;16.73;;;-0.70;99.90;;;;;;4948295;28;20343;-81
2024/01/18 01:19:00;;;;;;;22.13;16.17;;;-0.70;99.90;;;;;;4969705;28;20373;-81
2024/01/18 01:21:26;;;;;;;27.80;18.93;;;-0.70;99.90;;;;;;4966887;28;20027;-79
2024/01/18 01:23:52;;;;;;;37.10;22.90;;;-0.70;99.90;;;;;;5001543;28;20042;-78
2024/01/18 01:26:19;;;;;;;27.57;19.93;;;-0.70;99.90;;;;;;4970160;28;20480;-77
2024/01/18 01:28:45;;;;;;;25.17;18.33;;;-0.70;99.90;;;;;;4973132;28;20022;-81
2024/01/18 01:31:11;;;;;;;33.67;23.20;;;-0.70;99.90;;;;;;5001962;28;20747;-79
2024/01/18 01:33:38;;;;;;;31.50;22.03;;;-0.70;99.90;;;;;;4954708;28;20038;-76
2024/01/18 01:36:05;;;;;;;30.40;20.10;;;-0.80;99.90;;;;;;4988945;28;20026;-77
2024/01/18 01:38:32;;;;;;;29.53;20.73;;;-0.80;99.90;;;;;;4971540;28;20037;-79
2024/01/18 01:40:59;;;;;;;34.77;22.17;;;-0.80;99.90;;;;;;5001906;28;20038;-77
2024/01/18 01:43:27;;;;;;;25.77;18.43;;;-0.90;99.90;;;;;;4969849;28;20559;-79
2024/01/18 01:45:54;;;;;;;33.13;20.60;;;-0.90;99.90;;;;;;4955187;28;20026;-78
2024/01/18 01:48:20;;;;;;;30.70;21.37;;;-0.90;99.90;;;;;;4986589;28;20034;-78
2024/01/18 01:50:47;;;;;;;32.27;22.03;;;-1.00;99.90;;;;;;4972427;28;20470;-80
2024/01/18 01:53:16;;;;;;;31.77;20.93;;;-1.00;99.90;;;;;;4973310;28;20149;-77
2024/01/18 01:55:43;;;;;;;31.43;22.77;;;-1.10;99.90;;;;;;5007057;28;20473;-79
2024/01/18 01:58:12;;;;;;;32.57;22.87;;;-1.10;99.90;;;;;;4976982;28;20038;-79
2024/01/18 02:00:39;;;;;;;34.77;22.80;;;-1.20;99.90;;;;;;5006861;28;20030;-77
2024/01/18 02:03:06;;;;;;;28.70;20.57;;;-1.20;99.90;;;;;;4959256;28;20473;-80
2024/01/18 02:05:32;;;;;;;30.27;20.97;;;-1.30;99.90;;;;;;4974454;28;20114;-79
2024/01/18 02:07:58;;;;;;;32.83;22.73;;;-1.30;99.90;;;;;;4974022;28;20033;-80
2024/01/18 02:10:25;;;;;;;30.40;21.47;;;-1.30;99.90;;;;;;4972973;28;20035;-79
2024/01/18 02:12:51;;;;;;;29.90;20.83;;;-1.40;99.90;;;;;;4992165;28;20057;-81
2024/01/18 02:15:19;;;;;;;38.20;24.57;;;-1.40;99.90;;;;;;4975369;28;20034;-79
2024/01/18 02:17:45;;;;;;;33.80;23.17;;;-1.50;99.90;;;;;;4990519;28;20045;-81
2024/01/18 02:20:12;;;;;;;29.77;19.70;;;-1.50;99.90;;;;;;4975035;28;20022;-80
2024/01/18 02:22:43;;;;;;;31.93;20.70;;;-1.60;99.90;;;;;;4971565;28;20053;-81
2024/01/18 02:25:19;;;;;;;32.27;21.63;;;-1.60;99.90;;;;;;5006852;28;20061;-80
2024/01/18 02:27:45;;;;;;;37.40;27.23;;;-1.60;99.90;;;;;;4974491;28;20417;-76
2024/01/18 02:30:12;;;;;;;37.27;26.30;;;-1.60;99.90;;;;;;4942911;28;20038;-78
2024/01/18 02:32:38;;;;;;;35.20;21.80;;;-1.70;99.90;;;;;;4973430;28;20461;-79
2024/01/18 02:35:05;;;;;;;38.07;24.50;;;-1.70;99.90;;;;;;4957699;28;20477;-81
2024/01/18 02:37:33;;;;;;;38.83;22.53;;;-1.70;99.90;;;;;;4955642;28;20033;-78
2024/01/18 02:39:59;;;;;;;36.43;22.03;;;-1.80;99.90;;;;;;4972342;28;20037;-81
2024/01/18 02:42:26;;;;;;;34.07;22.97;;;-1.80;99.90;;;;;;4972790;28;20042;-79
2024/01/18 02:44:55;;;;;;;36.10;22.47;;;-1.80;99.90;;;;;;4958467;28;20030;-79
2024/01/18 02:47:23;;;;;;;33.33;22.97;;;-1.80;99.90;;;;;;4975017;28;20031;-77
2024/01/18 02:49:50;;;;;;;34.67;22.37;;;-1.80;99.90;;;;;;4957650;28;20045;-79
2024/01/18 02:52:17;;;;;;;33.90;22.73;;;-1.90;99.90;;;;;;4989354;28;20042;-81
2024/01/18 02:54:44;;;;;;;33.70;22.67;;;-1.90;99.90;;;;;;4958688;28;20034;-80
2024/01/18 02:57:10;;;;;;;31.43;20.87;;;-1.90;99.90;;;;;;5005542;28;20045;-80
2024/01/18 02:59:37;;;;;;;34.60;22.60;;;-1.90;99.90;;;;;;4989083;28;20041;-78
2024/01/18 03:02:03;;;;;;;39.43;26.30;;;-2.00;99.90;;;;;;5005201;28;20034;-76
2024/01/18 03:04:31;;;;;;;33.53;22.97;;;-2.00;99.90;;;;;;4961064;28;20042;-73
2024/01/18 03:06:58;;;;;;;36.80;23.50;;;-2.00;99.90;;;;;;4975116;28;20369;-74
2024/01/18 03:09:25;;;;;;;38.97;24.20;;;-2.00;99.90;;;;;;4989581;28;20046;-77
2024/01/18 03:11:51;;;;;;;39.13;25.30;;;-2.10;99.90;;;;;;4956320;28;20050;-76
2024/01/18 03:14:20;;;;;;;39.47;23.57;;;-2.10;99.90;;;;;;4974411;28;20029;-76
2024/01/18 03:16:46;;;;;;;36.43;23.67;;;-2.10;99.90;;;;;;4974417;28;20034;-78
2024/01/18 03:19:13;;;;;;;39.00;25.97;;;-2.10;99.90;;;;;;4973759;28;20026;-75
2024/01/18 03:21:39;;;;;;;32.00;20.90;;;-2.10;99.90;;;;;;4958585;28;20038;-74
2024/01/18 03:24:09;;;;;;;34.17;22.93;;;-2.10;99.90;;;;;;4975196;28;20466;-72
2024/01/18 03:26:35;;;;;;;35.70;24.20;;;-2.10;99.90;;;;;;4989449;28;20022;-80
2024/01/18 03:29:02;;;;;;;31.20;21.80;;;-2.10;99.90;;;;;;5005722;28;20328;-73
2024/01/18 03:31:28;;;;;;;37.83;24.13;;;-2.10;99.90;;;;;;4942507;28;20042;-77
2024/01/18 03:33:54;;;;;;;35.80;23.60;;;-2.10;99.90;;;;;;4940618;28;20888;-78
2024/01/18 03:36:21;;;;;;;32.40;23.07;;;-2.10;99.90;;;;;;4970678;28;20035;-78
2024/01/18 03:38:47;;;;;;;36.00;23.20;;;-2.20;99.90;;;;;;4972759;28;20043;-77
2024/01/18 03:41:17;;;;;;;30.70;20.73;;;-2.20;99.90;;;;;;4957336;28;20384;-76
2024/01/18 03:43:43;;;;;;;37.73;23.43;;;-2.20;99.90;;;;;;4956770;28;20389;-75
2024/01/18 03:46:14;;;;;;;37.73;22.57;;;-2.20;99.90;;;;;;4986007;28;20037;-72
2024/01/18 03:48:41;;;;;;;36.87;23.97;;;-2.20;99.90;;;;;;4969217;28;20042;-76
2024/01/18 03:51:07;;;;;;;33.03;22.00;;;-2.30;99.90;;;;;;4973612;28;20022;-75
2024/01/18 03:53:36;;;;;;;36.70;24.50;;;-2.20;99.90;;;;;;4988304;28;20067;-78
2024/01/18 03:56:03;;;;;;;26.80;18.57;;;-2.30;99.90;;;;;;4958398;28;20045;-75
2024/01/18 03:58:29;;;;;;;33.67;21.37;;;-2.30;99.90;;;;;;4956549;28;20500;-78
2024/01/18 04:00:55;;;;;;;29.27;17.77;;;-2.30;99.90;;;;;;4974797;28;20492;-78
2024/01/18 04:03:22;;;;;;;25.60;17.13;;;-2.30;99.90;;;;;;4972095;28;20046;-77
2024/01/18 04:05:48;;;;;;;27.73;19.70;;;-2.40;99.90;;;;;;4973707;28;20038;-76
2024/01/18 04:08:14;;;;;;;25.43;17.43;;;-2.40;99.90;;;;;;4955582;28;20035;-78
2024/01/18 04:10:41;;;;;;;32.23;21.07;;;-2.40;99.90;;;;;;4971616;28;20073;-80
2024/01/18 04:13:07;;;;;;;29.50;19.83;;;-2.40;99.90;;;;;;4956427;28;20034;-80
2024/01/18 04:15:34;;;;;;;34.60;19.77;;;-2.40;99.90;;;;;;4957355;28;20034;-76
2024/01/18 04:18:00;;;;;;;27.50;16.87;;;-2.50;99.90;;;;;;4974192;28;20033;-77
2024/01/18 04:20:28;;;;;;;29.97;17.27;;;-2.50;99.90;;;;;;4989318;28;20410;-77
2024/01/18 04:22:55;;;;;;;27.67;17.47;;;-2.50;99.90;;;;;;4987041;28;20369;-79
2024/01/18 04:25:21;;;;;;;23.17;14.37;;;-2.50;99.90;;;;;;4984963;28;20027;-78
2024/01/18 04:27:47;;;;;;;21.07;12.10;;;-2.50;99.90;;;;;;5004865;28;20034;-76
2024/01/18 04:30:14;;;;;;;16.43;11.07;;;-2.50;99.90;;;;;;4970876;28;20488;-74
2024/01/18 04:32:40;;;;;;;21.47;11.80;;;-2.50;99.90;;;;;;4971073;28;20461;-76
2024/01/18 04:35:07;;;;;;;16.27;11.30;;;-2.50;99.90;;;;;;5004763;28;20026;-78
2024/01/18 04:37:33;;;;;;;14.20;9.57;;;-2.50;99.90;;;;;;4989948;28;20014;-72
2024/01/18 04:40:01;;;;;;;13.03;8.87;;;-2.50;99.90;;;;;;4987723;28;20362;-74
2024/01/18 04:42:27;;;;;;;17.77;10.03;;;-2.50;99.90;;;;;;4973508;28;20470;-76
2024/01/18 04:44:53;;;;;;;16.30;10.20;;;-2.50;99.90;;;;;;4956450;28;20030;-78
2024/01/18 04:47:20;;;;;;;15.10;9.17;;;-2.50;99.90;;;;;;4973644;28;20553;-76
2024/01/18 04:49:46;;;;;;;13.67;7.63;;;-2.50;99.90;;;;;;4971279;28;20386;-74
2024/01/18 04:52:12;;;;;;;14.40;7.27;;;-2.50;99.90;;;;;;4986496;28;20042;-78
2024/01/18 04:54:39;;;;;;;17.47;8.33;;;-2.50;99.90;;;;;;4955487;28;20026;-78
2024/01/18 04:57:06;;;;;;;15.43;8.87;;;-2.50;99.90;;;;;;5004412;28;20027;-73
2024/01/18 04:59:32;;;;;;;14.03;8.67;;;-2.50;99.90;;;;;;5003324;28;20038;-74
2024/01/18 05:01:58;;;;;;;12.43;7.73;;;-2.50;99.90;;;;;;4956632;28;22435;-75
2024/01/18 05:04:25;;;;;;;17.07;9.83;;;-2.60;99.90;;;;;;5005295;28;20045;-76
2024/01/18 05:06:51;;;;;;;17.63;10.80;;;-2.60;99.90;;;;;;4973308;28;20045;-74
2024/01/18 05:09:18;;;;;;;15.83;9.60;;;-2.60;99.90;;;;;;4954953;28;20026;-78
2024/01/18 05:11:44;;;;;;;17.33;11.13;;;-2.60;99.90;;;;;;4972960;28;20307;-77
2024/01/18 05:14:11;;;;;;;20.47;10.60;;;-2.60;99.90;;;;;;4956026;28;20414;-78
2024/01/18 05:16:43;;;;;;;13.83;9.10;;;-2.60;99.90;;;;;;4973564;28;20030;-78
2024/01/18 05:19:09;;;;;;;16.65;9.93;;;-2.60;99.90;;;;;;4972213;28;20045;-77
2024/01/18 05:21:36;;;;;;;20.47;9.70;;;-2.60;99.90;;;;;;5003284;28;20043;-76
2024/01/18 05:24:02;;;;;;;17.20;11.37;;;-2.60;99.90;;;;;;4987347;28;20045;-73
2024/01/18 05:26:28;;;;;;;23.27;13.10;;;-2.60;99.90;;;;;;4956170;28;20515;-79
2024/01/18 05:28:55;;;;;;;27.30;14.10;;;-2.60;99.90;;;;;;4967918;28;20373;-79
2024/01/18 05:31:21;;;;;;;19.77;11.63;;;-2.60;99.90;;;;;;4968340;28;20046;-79
2024/01/18 05:33:47;;;;;;;19.00;12.90;;;-2.70;99.90;;;;;;4971724;28;20507;-74
2024/01/18 05:36:14;;;;;;;22.43;14.03;;;-2.70;99.90;;;;;;4972054;28;20026;-77
2024/01/18 05:38:40;;;;;;;26.53;15.40;;;-2.70;99.90;;;;;;4970748;28;20041;-76
2024/01/18 05:41:07;;;;;;;33.47;18.17;;;-2.70;99.90;;;;;;4984114;28;20035;-78
2024/01/18 05:43:33;;;;;;;24.97;15.43;;;-2.70;99.90;;;;;;4956658;28;20049;-76
2024/01/18 05:46:00;;;;;;;26.90;17.30;;;-2.70;99.90;;;;;;4989103;28;20026;-74
2024/01/18 05:48:26;;;;;;;26.07;17.93;;;-2.70;99.90;;;;;;4970727;28;20026;-75
2024/01/18 05:50:52;;;;;;;26.47;18.57;;;-2.70;99.90;;;;;;4973289;28;20496;-77
2024/01/18 05:53:19;;;;;;;32.67;16.87;;;-2.70;99.90;;;;;;4955422;28;20034;-74
2024/01/18 05:55:45;;;;;;;25.83;15.87;;;-2.70;99.90;;;;;;4970949;28;20042;-79
2024/01/18 05:58:11;;;;;;;24.60;16.10;;;-2.80;99.90;;;;;;4956890;28;20041;-73
2024/01/18 06:00:38;;;;;;;23.20;14.97;;;-2.80;99.90;;;;;;4986472;28;20038;-79
2024/01/18 06:03:04;;;;;;;25.67;15.17;;;-2.80;99.90;;;;;;4970614;28;20054;-79
2024/01/18 06:05:30;;;;;;;23.40;16.13;;;-2.80;99.90;;;;;;4986927;28;20041;-73
2024/01/18 06:07:57;;;;;;;25.20;14.53;;;-2.90;99.90;;;;;;4987412;28;20030;-74
2024/01/18 06:10:23;;;;;;;22.50;15.03;;;-2.90;99.90;;;;;;4950068;28;20042;-75
2024/01/18 06:12:49;;;;;;;25.40;14.77;;;-2.90;99.90;;;;;;4973593;28;20041;-76
2024/01/18 06:15:18;;;;;;;25.30;17.17;;;-2.90;99.90;;;;;;4988608;28;20500;-77
2024/01/18 06:17:44;;;;;;;23.30;16.20;;;-2.90;99.90;;;;;;4973264;28;20343;-73
2024/01/18 06:20:14;;;;;;;26.27;15.83;;;-2.90;99.90;;;;;;4968337;28;20038;-80
2024/01/18 06:22:41;;;;;;;24.00;15.00;;;-3.00;99.90;;;;;;4975151;28;20465;-74
2024/01/18 06:25:07;;;;;;;25.00;14.90;;;-3.00;99.90;;;;;;4989574;28;20504;-80
2024/01/18 06:27:35;;;;;;;23.13;13.13;;;-3.00;99.90;;;;;;5007233;28;20065;-76
2024/01/18 06:30:01;;;;;;;26.30;14.83;;;-3.00;99.90;;;;;;4987383;28;20033;-80
2024/01/18 06:32:30;;;;;;;24.90;14.40;;;-3.00;99.90;;;;;;4971097;28;20309;-80
2024/01/18 06:34:57;;;;;;;20.90;14.00;;;-3.00;99.90;;;;;;4989110;28;20042;-80
2024/01/18 06:37:23;;;;;;;25.10;13.60;;;-3.00;99.90;;;;;;4985442;28;20030;-80
2024/01/18 06:39:50;;;;;;;24.93;15.10;;;-3.10;99.90;;;;;;4973233;28;20485;-81
2024/01/18 06:42:16;;;;;;;21.00;13.77;;;-3.10;99.90;;;;;;4974572;28;20061;-77
2024/01/18 06:44:46;;;;;;;20.50;12.90;;;-3.10;99.90;;;;;;4975526;28;21005;-79
2024/01/18 06:47:12;;;;;;;23.90;13.30;;;-3.00;99.90;;;;;;4973671;28;20034;-80
2024/01/18 06:49:38;;;;;;;19.80;12.23;;;-3.00;99.90;;;;;;5006118;28;20579;-79
2024/01/18 06:52:05;;;;;;;16.70;11.47;;;-3.10;99.90;;;;;;4974964;28;20018;-78
2024/01/18 06:54:31;;;;;;;24.67;13.33;;;-3.00;99.90;;;;;;4990618;28;20486;-79
2024/01/18 06:56:58;;;;;;;24.10;14.57;;;-2.90;99.90;;;;;;4989259;28;20030;-78
2024/01/18 06:59:24;;;;;;;21.83;12.63;;;-2.90;99.90;;;;;;4972019;28;20481;-79
2024/01/18 07:01:51;;;;;;;18.40;11.07;;;-2.90;99.90;;;;;;4973798;28;20026;-80
2024/01/18 07:04:19;;;;;;;20.70;12.13;;;-2.90;99.90;;;;;;4972324;28;20486;-76
2024/01/18 07:06:46;;;;;;;19.27;11.23;;;-2.90;99.90;;;;;;4989944;28;20478;-81
2024/01/18 07:09:12;;;;;;;19.77;12.03;;;-2.90;99.90;;;;;;5006835;28;20023;-81
2024/01/18 07:11:39;;;;;;;17.57;11.33;;;-2.90;99.90;;;;;;4973978;28;20040;-83
2024/01/18 07:14:05;;;;;;;14.70;9.33;;;-2.90;99.90;;;;;;4987646;28;20039;-78
2024/01/18 07:16:32;;;;;;;14.93;9.13;;;-2.90;99.90;;;;;;4971578;28;20046;-81
2024/01/18 07:18:58;;;;;;;13.73;8.80;;;-2.90;99.90;;;;;;4987355;28;20037;-80
2024/01/18 07:21:25;;;;;;;14.43;8.47;;;-2.90;99.90;;;;;;4974247;28;20041;-82
2024/01/18 07:23:51;;;;;;;13.83;8.97;;;-2.90;99.90;;;;;;4973161;28;20035;-82
2024/01/18 07:26:18;;;;;;;13.20;8.37;;;-2.90;99.90;;;;;;4959819;28;20043;-79
2024/01/18 07:28:45;;;;;;;16.90;8.43;;;-2.90;99.90;;;;;;4974411;28;20034;-83
2024/01/18 07:31:11;;;;;;;13.47;8.03;;;-2.90;99.90;;;;;;4971920;28;20027;-81
2024/01/18 07:33:37;;;;;;;11.73;7.30;;;-2.90;99.90;;;;;;5005355;28;20032;-77
2024/01/18 07:36:04;;;;;;;14.67;8.23;;;-2.90;99.90;;;;;;4972020;28;20034;-77
2024/01/18 07:38:30;;;;;;;16.23;8.30;;;-2.90;99.90;;;;;;4990203;28;20038;-82
2024/01/18 07:40:57;;;;;;;11.97;7.37;;;-2.90;99.90;;;;;;4974338;28;20030;-84
2024/01/18 07:43:24;;;;;;;14.23;8.30;;;-2.90;99.90;;;;;;5007863;28;20385;-78
2024/01/18 07:45:50;;;;;;;13.13;8.13;;;-2.90;99.90;;;;;;4975759;28;20053;-76
2024/01/18 07:48:16;;;;;;;13.20;7.83;;;-2.90;99.90;;;;;;5007479;28;20034;-78
2024/01/18 07:50:43;;;;;;;12.70;6.80;;;-2.90;99.90;;;;;;4985675;28;20038;-81
2024/01/18 07:53:11;;;;;;;10.63;7.00;;;-2.90;99.90;;;;;;4973125;28;20038;-81
2024/01/18 07:55:37;;;;;;;18.90;8.33;;;-2.90;99.90;;;;;;4986609;28;20045;-79
2024/01/18 07:58:04;;;;;;;13.93;8.00;;;-2.90;99.90;;;;;;4988512;28;20061;-81
2024/01/18 08:00:30;;;;;;;13.17;7.90;;;-2.90;99.90;;;;;;4972095;28;20030;-79
2024/01/18 08:02:57;;;;;;;14.23;7.80;;;-2.90;99.90;;;;;;4958765;28;20030;-82
2024/01/18 08:05:24;;;;;;;13.77;8.17;;;-2.80;99.90;;;;;;4971916;28;20053;-79
2024/01/18 08:07:50;;;;;;;14.83;10.80;;;-2.80;99.90;;;;;;4973182;28;20085;-77
2024/01/18 08:10:17;;;;;;;18.13;10.73;;;-2.80;99.90;;;;;;4953958;28;20033;-81
2024/01/18 08:12:44;;;;;;;18.80;10.40;;;-2.70;99.90;;;;;;4972285;28;20041;-81
2024/01/18 08:15:12;;;;;;;18.87;10.87;;;-2.60;99.90;;;;;;4999704;28;20038;-75
2024/01/18 08:17:38;;;;;;;19.07;11.80;;;-2.60;99.90;;;;;;4973312;28;20421;-82
2024/01/18 08:20:12;;;;;;;17.17;11.27;;;-2.50;99.90;;;;;;4970526;28;20034;-79
2024/01/18 08:22:43;;;;;;;18.67;11.90;;;-2.50;99.90;;;;;;4972787;28;20136;-81
2024/01/18 08:25:13;;;;;;;22.20;12.00;;;-2.40;99.90;;;;;;4971551;28;20050;-78
2024/01/18 08:27:40;;;;;;;15.90;10.93;;;-2.40;99.90;;;;;;4971174;28;20520;-78
2024/01/18 08:30:07;;;;;;;16.07;9.87;;;-2.30;99.90;;;;;;4972124;28;20588;-79
2024/01/18 08:32:34;;;;;;;19.80;10.57;;;-2.20;99.90;;;;;;4955811;28;20053;-80
2024/01/18 08:35:08;;;;;;;16.37;10.07;;;-2.20;99.90;;;;;;5004559;28;20050;-74
2024/01/18 08:37:35;;;;;;;17.60;11.67;;;-2.10;99.90;;;;;;4973218;28;20042;-79
2024/01/18 08:40:02;;;;;;;16.97;10.97;;;-2.10;99.90;;;;;;4956638;28;20035;-82
2024/01/18 08:42:28;;;;;;;16.70;10.60;;;-2.00;99.90;;;;;;5003838;28;20049;-80
2024/01/18 08:44:55;;;;;;;20.50;12.00;;;-1.90;99.90;;;;;;4974448;28;20041;-75
2024/01/18 08:47:22;;;;;;;17.80;10.43;;;-1.90;99.90;;;;;;4972466;28;20042;-78
2024/01/18 08:49:48;;;;;;;15.07;10.03;;;-1.70;99.90;;;;;;4988629;28;20049;-79
2024/01/18 08:52:15;;;;;;;11.93;8.43;;;-1.70;99.90;;;;;;4986688;28;20481;-79
2024/01/18 08:54:42;;;;;;;13.33;6.40;;;-1.60;99.90;;;;;;4988815;28;20054;-78
2024/01/18 08:57:09;;;;;;;10.80;6.03;;;-1.50;99.90;;;;;;4972900;28;20033;-79
2024/01/18 08:59:35;;;;;;;9.53;6.10;;;-1.40;99.90;;;;;;4987992;28;20042;-77
2024/01/18 09:02:02;;;;;;;8.33;6.17;;;-1.30;99.90;;;;;;4985434;28;20038;-75
2024/01/18 09:04:28;;;;;;;9.43;5.00;;;-1.20;99.90;;;;;;4954990;28;20046;-75
2024/01/18 09:06:55;;;;;;;9.47;4.80;;;-1.10;99.90;;;;;;4953257;28;20061;-78
2024/01/18 09:09:21;;;;;;;8.40;3.97;;;-1.00;99.90;;;;;;4972105;28;20061;-79
2024/01/18 09:11:47;;;;;;;5.60;3.00;;;-0.90;99.90;;;;;;4972126;28;20030;-79
2024/01/18 09:14:14;;;;;;;8.47;3.90;;;-0.90;99.90;;;;;;4955399;28;20042;-72
2024/01/18 09:16:40;;;;;;;7.47;2.83;;;-0.70;99.90;;;;;;4971529;28;22443;-78
2024/01/18 09:19:07;;;;;;;12.10;4.70;;;-0.70;99.90;;;;;;4968897;28;20034;-78
2024/01/18 09:21:33;;;;;;;7.90;2.73;;;-0.60;99.90;;;;;;4971662;28;20389;-77
2024/01/18 09:23:59;;;;;;;8.50;3.20;;;-0.50;99.90;;;;;;4957027;28;20031;-79
2024/01/18 09:26:26;;;;;;;7.20;2.40;;;-0.40;99.90;;;;;;4970520;28;20046;-76
2024/01/18 09:28:52;;;;;;;5.10;1.30;;;-0.30;99.90;;;;;;5002073;28;20056;-79
2024/01/18 09:31:18;;;;;;;8.33;2.03;;;-0.30;99.90;;;;;;4973729;28;20042;-77
2024/01/18 09:33:45;;;;;;;6.40;1.43;;;-0.30;99.90;;;;;;4973040;28;20402;-79
2024/01/18 09:36:11;;;;;;;3.37;1.50;;;-0.20;99.90;;;;;;4958039;28;20037;-79
2024/01/18 09:38:37;;;;;;;5.53;1.20;;;-0.10;99.90;;;;;;4974756;28;20034;-78
2024/01/18 09:41:07;;;;;;;8.27;1.90;;;-0.10;99.90;;;;;;4988304;28;20469;-78
2024/01/18 09:43:37;;;;;;;5.60;2.53;;;0.00;99.90;;;;;;4970808;28;20029;-76
2024/01/18 09:46:09;;;;;;;7.90;2.50;;;0.10;99.90;;;;;;4971846;28;20034;-77
2024/01/18 09:48:37;;;;;;;6.40;2.33;;;0.20;99.90;;;;;;4969802;28;20533;-73
2024/01/18 09:51:06;;;;;;;3.37;1.50;;;0.30;99.90;;;;;;4998608;28;20039;-77
2024/01/18 09:53:35;;;;;;;4.00;1.37;;;0.30;99.90;;;;;;4970640;28;20019;-74
2024/01/18 09:56:21;;;;;;;4.77;1.37;;;0.40;99.90;;;;;;4955098;28;20600;-75
2024/01/18 09:58:47;;;;;;;3.50;1.40;;;0.50;99.90;;;;;;4970723;28;20402;-74
2024/01/18 10:01:20;;;;;;;5.47;1.70;;;0.50;99.90;;;;;;4970494;28;20042;-77
2024/01/18 10:03:48;;;;;;;5.40;1.60;;;0.60;99.90;;;;;;4986628;28;20030;-76
2024/01/18 10:06:17;;;;;;;3.93;1.20;;;0.80;99.90;;;;;;4971883;28;20034;-73
2024/01/18 10:08:47;;;;;;;4.67;1.40;;;1.00;99.90;;;;;;4970999;28;20130;-77
2024/01/18 10:11:14;;;;;;;3.33;1.07;;;1.30;99.90;;;;;;4968556;28;20425;-75
2024/01/18 10:13:53;;;;;;;2.50;1.07;;;1.60;99.90;;;;;;4953895;28;20084;-74
2024/01/18 10:16:32;;;;;;;3.88;0.88;;;2.00;99.90;;;;;;4988727;28;20042;-74
2024/01/18 10:19:05;;;;;;;2.40;0.65;;;2.30;99.90;;;;;;4958178;28;20042;-76
2024/01/18 10:21:34;;;;;;;2.30;0.80;;;2.40;99.90;;;;;;4971700;28;20049;-77
2024/01/18 10:24:01;;;;;;;9.95;0.77;;;2.60;99.90;;;;;;4971447;28;20081;-74
2024/01/18 10:26:33;;;;;;;2.78;0.70;;;2.80;99.90;;;;;;4959220;28;20038;-79
2024/01/18 10:28:59;;;;;;;4.25;0.75;;;3.20;99.90;;;;;;4989517;28;20030;-78
2024/01/18 10:31:26;;;;;;;3.70;0.77;;;3.50;99.90;;;;;;5004973;28;20045;-79
2024/01/18 10:33:52;;;;;;;3.67;1.20;;;3.80;99.90;;;;;;4974214;28;20397;-74
2024/01/18 10:36:19;;;;;;;3.13;1.15;;;4.20;99.90;;;;;;4989956;28;20042;-76
2024/01/18 10:38:45;;;;;;;3.22;1.20;;;4.50;99.90;;;;;;4988579;28;20042;-74
2024/01/18 10:41:17;;;;;;;6.68;1.08;;;4.70;99.90;;;;;;4971578;28;20042;-77
2024/01/18 10:43:43;;;;;;;4.32;1.38;;;4.90;99.90;;;;;;4971242;28;20042;-77
2024/01/18 10:46:10;;;;;;;7.50;1.90;;;5.20;99.90;;;;;;4974172;28;20038;-75
2024/01/18 10:48:37;;;;;;;6.13;2.20;;;5.30;99.90;;;;;;4972593;28;20039;-77
2024/01/18 10:51:06;;;;;;;3.67;1.70;;;5.20;99.90;;;;;;4973506;28;20026;-78
2024/01/18 10:53:33;;;;;;;6.03;2.88;;;4.90;99.90;;;;;;4956294;28;20421;-75
2024/01/18 10:56:01;;;;;;;5.75;3.05;;;4.60;99.90;;;;;;4958066;28;20034;-73
2024/01/18 10:58:30;;;;;;;6.80;3.38;;;4.20;99.90;;;;;;4957587;28;20199;-77
2024/01/18 11:00:58;;;;;;;7.32;3.25;;;3.90;99.90;;;;;;5004605;28;20388;-74
2024/01/18 11:03:25;;;;;;;6.68;2.78;;;3.60;99.90;;;;;;4973487;28;20517;-80
2024/01/18 11:05:52;;;;;;;5.38;3.20;;;3.30;99.90;;;;;;4989610;28;20034;-77
2024/01/18 11:08:19;;;;;;;7.15;3.17;;;3.10;99.90;;;;;;4972620;28;20053;-79
2024/01/18 11:10:48;;;;;;;7.07;2.67;;;3.00;99.90;;;;;;4972827;28;20042;-74
2024/01/18 11:13:15;;;;;;;5.90;2.95;;;2.80;99.90;;;;;;4972071;28;20042;-81
2024/01/18 11:15:44;;;;;;;4.25;3.15;;;2.70;99.90;;;;;;4989851;28;20031;-77
2024/01/18 11:18:13;;;;;;;5.85;2.55;;;2.60;99.90;;;;;;4972924;28;20512;-78
2024/01/18 11:20:58;;;;;;;6.63;2.63;;;2.50;99.90;;;;;;4956512;28;20045;-80
2024/01/18 11:23:32;;;;;;;4.03;1.98;;;2.40;99.90;;;;;;4973588;28;20041;-78
2024/01/18 11:25:59;;;;;;;3.90;2.13;;;2.40;99.90;;;;;;4973862;28;20067;-80
2024/01/18 11:28:27;;;;;;;5.43;2.10;;;2.30;99.90;;;;;;4977361;28;20054;-80
2024/01/18 11:30:53;;;;;;;5.57;1.67;;;2.30;99.90;;;;;;4969634;28;20614;-81
2024/01/18 11:33:23;;;;;;;4.35;1.60;;;2.30;99.90;;;;;;4975738;28;20038;-78
2024/01/18 11:35:49;;;;;;;6.60;1.93;;;2.30;99.90;;;;;;4955977;28;20034;-80
2024/01/18 11:38:21;;;;;;;8.80;2.20;;;2.20;99.90;;;;;;4973941;28;20038;-76
2024/01/18 11:41:12;;;;;;;6.05;2.08;;;2.30;99.90;;;;;;4989659;28;20034;-77
2024/01/18 11:43:51;;;;;;;4.07;1.97;;;2.20;99.90;;;;;;4959567;28;20061;-80
2024/01/18 11:46:32;;;;;;;6.47;2.03;;;2.20;99.90;;;;;;4986223;28;20042;-79
2024/01/18 11:48:58;;;;;;;5.27;2.37;;;2.20;99.90;;;;;;4956510;28;20493;-80
2024/01/18 11:51:25;;;;;;;17.63;3.87;;;2.20;99.90;;;;;;4988329;28;20057;-79
2024/01/18 11:53:54;;;;;;;8.40;1.97;;;2.30;99.90;;;;;;5003002;28;20037;-81
2024/01/18 11:56:23;;;;;;;5.60;1.47;;;2.30;99.90;;;;;;4987524;28;20528;-80
2024/01/18 11:58:54;;;;;;;6.68;1.98;;;2.30;99.90;;;;;;4971462;28;20038;-74
2024/01/18 12:01:22;;;;;;;5.20;1.40;;;2.30;99.90;;;;;;4940706;28;20038;-78
2024/01/18 12:03:49;;;;;;;4.03;1.50;;;2.30;99.90;;;;;;4972398;28;21452;-81
2024/01/18 12:06:16;;;;;;;5.28;0.95;;;2.30;99.90;;;;;;4988853;28;20042;-78
2024/01/18 12:08:44;;;;;;;4.32;1.70;;;2.30;99.90;;;;;;4988996;28;20049;-79
2024/01/18 12:11:11;;;;;;;2.87;1.33;;;2.40;99.90;;;;;;4985110;28;20425;-78
2024/01/18 12:13:38;;;;;;;5.83;1.60;;;2.60;99.90;;;;;;4972073;28;20046;-80
2024/01/18 12:16:08;;;;;;;4.00;1.30;;;2.80;99.90;;;;;;4970760;28;20035;-81
2024/01/18 12:18:42;;;;;;;3.40;0.87;;;3.00;99.90;;;;;;4971207;28;20039;-75
2024/01/18 12:21:10;;;;;;;3.83;1.00;;;3.20;99.90;;;;;;4955818;28;20030;-80
2024/01/18 12:23:37;;;;;;;3.00;1.37;;;3.40;99.90;;;;;;4970787;28;20026;-74
2024/01/18 12:26:04;;;;;;;5.80;1.43;;;3.40;99.90;;;;;;4968967;28;20061;-80
2024/01/18 12:28:30;;;;;;;6.30;1.10;;;3.50;99.90;;;;;;4972359;28;20037;-80
2024/01/18 12:31:01;;;;;;;5.20;1.80;;;3.50;99.90;;;;;;4973194;28;20053;-79
2024/01/18 12:33:30;;;;;;;3.10;1.10;;;3.50;99.90;;;;;;4971668;28;20034;-81
2024/01/18 12:35:59;;;;;;;5.47;1.60;;;3.40;99.90;;;;;;4977363;28;20038;-80